Terminal Aerodrome Forecast
Issued by NWS

Home | Current Version | Previous Version | Text Only | Print | Product List | Glossary On
Versions: 1 2 3 4 5 6 7 8 9 10 11 12 13 14 15 16
181
FTAK31 PAJN 221139
TAFASI
TAF
PASI 221139Z 2212/2312 11012KT P6SM -SHRA OVC035 WS020/15030KT
     FM221400 12012KT P6SM -SHRA OVC025 WS020/15030KT
     FM222000 11010KT P6SM -SHRA OVC025
     FM230800 15010KT P6SM VCSH OVC040=

USA.gov is the U.S. government's official web portal to all federal, state and local government web resources and services.